sensor_id;sensor_type;location;lat;lon;timestamp;temperature;humidity
22471;DHT22;11402;51.374;6.594;2022-07-29T00:00:01;19.50;99.90
22471;DHT22;11402;51.374;6.594;2022-07-29T00:02:27;19.50;99.90
22471;DHT22;11402;51.374;6.594;2022-07-29T00:04:53;19.50;99.90
22471;DHT22;11402;51.374;6.594;2022-07-29T00:07:19;19.50;99.90
22471;DHT22;11402;51.374;6.594;2022-07-29T00:09:44;19.50;99.90
22471;DHT22;11402;51.374;6.594;2022-07-29T00:12:10;19.50;99.90
22471;DHT22;11402;51.374;6.594;2022-07-29T00:14:37;19.50;99.90
22471;DHT22;11402;51.374;6.594;2022-07-29T00:17:02;19.40;99.90
22471;DHT22;11402;51.374;6.594;2022-07-29T00:19:28;19.40;99.90
22471;DHT22;11402;51.374;6.594;2022-07-29T00:21:53;19.40;99.90
22471;DHT22;11402;51.374;6.594;2022-07-29T00:24:19;19.40;99.90
22471;DHT22;11402;51.374;6.594;2022-07-29T00:26:44;19.40;99.90
22471;DHT22;11402;51.374;6.594;2022-07-29T00:29:10;19.40;99.90
22471;DHT22;11402;51.374;6.594;2022-07-29T00:31:36;19.50;99.90
22471;DHT22;11402;51.374;6.594;2022-07-29T00:34:03;19.50;99.90
22471;DHT22;11402;51.374;6.594;2022-07-29T00:36:28;19.50;99.90
22471;DHT22;11402;51.374;6.594;2022-07-29T00:38:54;19.50;99.90
22471;DHT22;11402;51.374;6.594;2022-07-29T00:41:20;19.50;99.90
22471;DHT22;11402;51.374;6.594;2022-07-29T00:43:46;19.40;99.90
22471;DHT22;11402;51.374;6.594;2022-07-29T00:46:12;19.40;99.90
22471;DHT22;11402;51.374;6.594;2022-07-29T00:48:37;19.40;99.90
22471;DHT22;11402;51.374;6.594;2022-07-29T00:51:05;19.30;99.90
22471;DHT22;11402;51.374;6.594;2022-07-29T00:53:31;19.20;99.90
22471;DHT22;11402;51.374;6.594;2022-07-29T00:55:57;19.20;99.90
22471;DHT22;11402;51.374;6.594;2022-07-29T00:58:24;19.20;99.90
22471;DHT22;11402;51.374;6.594;2022-07-29T01:00:50;19.30;99.90
22471;DHT22;11402;51.374;6.594;2022-07-29T01:03:16;19.30;99.90
22471;DHT22;11402;51.374;6.594;2022-07-29T01:05:43;19.30;99.90
22471;DHT22;11402;51.374;6.594;2022-07-29T01:08:11;19.30;99.90
22471;DHT22;11402;51.374;6.594;2022-07-29T01:10:38;19.30;99.90
22471;DHT22;11402;51.374;6.594;2022-07-29T01:13:04;19.30;99.90
22471;DHT22;11402;51.374;6.594;2022-07-29T01:15:31;19.30;99.90
22471;DHT22;11402;51.374;6.594;2022-07-29T01:18:04;19.40;99.90
22471;DHT22;11402;51.374;6.594;2022-07-29T01:21:04;19.10;99.90
22471;DHT22;11402;51.374;6.594;2022-07-29T01:24:11;19.10;99.90
22471;DHT22;11402;51.374;6.594;2022-07-29T01:26:45;19.10;99.90
22471;DHT22;11402;51.374;6.594;2022-07-29T01:29:32;19.10;99.90
22471;DHT22;11402;51.374;6.594;2022-07-29T01:32:08;19.20;99.90
22471;DHT22;11402;51.374;6.594;2022-07-29T01:34:47;19.40;99.90
22471;DHT22;11402;51.374;6.594;2022-07-29T01:37:39;19.20;99.90
22471;DHT22;11402;51.374;6.594;2022-07-29T01:40:27;19.20;99.90
22471;DHT22;11402;51.374;6.594;2022-07-29T01:42:57;19.20;99.90
22471;DHT22;11402;51.374;6.594;2022-07-29T01:45:41;19.10;99.90
22471;DHT22;11402;51.374;6.594;2022-07-29T01:48:34;19.00;99.90
22471;DHT22;11402;51.374;6.594;2022-07-29T01:51:10;18.90;99.90
22471;DHT22;11402;51.374;6.594;2022-07-29T01:53:55;19.00;99.90
22471;DHT22;11402;51.374;6.594;2022-07-29T01:56:25;19.20;99.90
22471;DHT22;11402;51.374;6.594;2022-07-29T01:58:55;19.20;99.90
22471;DHT22;11402;51.374;6.594;2022-07-29T02:01:24;19.10;99.90
22471;DHT22;11402;51.374;6.594;2022-07-29T02:03:50;19.10;99.90
22471;DHT22;11402;51.374;6.594;2022-07-29T02:06:21;19.00;99.90
22471;DHT22;11402;51.374;6.594;2022-07-29T02:08:48;19.00;99.90
22471;DHT22;11402;51.374;6.594;2022-07-29T02:11:15;19.10;99.90
22471;DHT22;11402;51.374;6.594;2022-07-29T02:13:41;19.00;99.90
22471;DHT22;11402;51.374;6.594;2022-07-29T02:16:09;19.00;99.90
22471;DHT22;11402;51.374;6.594;2022-07-29T02:18:37;18.80;99.90
22471;DHT22;11402;51.374;6.594;2022-07-29T02:21:04;18.80;99.90
22471;DHT22;11402;51.374;6.594;2022-07-29T02:23:31;18.60;99.90
22471;DHT22;11402;51.374;6.594;2022-07-29T02:25:58;18.50;99.90
22471;DHT22;11402;51.374;6.594;2022-07-29T02:28:27;18.60;99.90
22471;DHT22;11402;51.374;6.594;2022-07-29T02:30:56;18.50;99.90
22471;DHT22;11402;51.374;6.594;2022-07-29T02:33:23;18.50;99.90
22471;DHT22;11402;51.374;6.594;2022-07-29T02:35:50;18.40;99.90
22471;DHT22;11402;51.374;6.594;2022-07-29T02:38:16;18.30;99.90
22471;DHT22;11402;51.374;6.594;2022-07-29T02:44:16;18.00;99.90
22471;DHT22;11402;51.374;6.594;2022-07-29T02:47:13;18.10;99.90
22471;DHT22;11402;51.374;6.594;2022-07-29T02:49:49;18.00;99.90
22471;DHT22;11402;51.374;6.594;2022-07-29T02:52:28;17.90;99.90
22471;DHT22;11402;51.374;6.594;2022-07-29T02:55:01;17.80;99.90
22471;DHT22;11402;51.374;6.594;2022-07-29T02:57:46;17.90;99.90
22471;DHT22;11402;51.374;6.594;2022-07-29T03:00:14;17.90;99.90
22471;DHT22;11402;51.374;6.594;2022-07-29T03:02:43;17.70;99.90
22471;DHT22;11402;51.374;6.594;2022-07-29T03:05:15;17.60;99.90
22471;DHT22;11402;51.374;6.594;2022-07-29T03:07:45;17.60;99.90
22471;DHT22;11402;51.374;6.594;2022-07-29T03:10:11;17.60;99.90
22471;DHT22;11402;51.374;6.594;2022-07-29T03:12:38;17.50;99.90
22471;DHT22;11402;51.374;6.594;2022-07-29T03:15:04;17.40;99.90
22471;DHT22;11402;51.374;6.594;2022-07-29T03:17:30;17.40;99.90
22471;DHT22;11402;51.374;6.594;2022-07-29T03:19:57;17.50;99.90
22471;DHT22;11402;51.374;6.594;2022-07-29T03:22:23;17.60;99.90
22471;DHT22;11402;51.374;6.594;2022-07-29T03:24:49;17.70;99.90
22471;DHT22;11402;51.374;6.594;2022-07-29T03:27:15;17.60;99.90
22471;DHT22;11402;51.374;6.594;2022-07-29T03:29:40;17.60;99.90
22471;DHT22;11402;51.374;6.594;2022-07-29T03:32:06;17.90;99.90
22471;DHT22;11402;51.374;6.594;2022-07-29T03:34:32;17.80;99.90
22471;DHT22;11402;51.374;6.594;2022-07-29T03:36:57;17.80;99.90
22471;DHT22;11402;51.374;6.594;2022-07-29T03:39:26;17.90;99.90
22471;DHT22;11402;51.374;6.594;2022-07-29T03:41:55;18.00;99.90
22471;DHT22;11402;51.374;6.594;2022-07-29T03:44:26;18.10;99.90
22471;DHT22;11402;51.374;6.594;2022-07-29T03:46:53;18.10;99.90
22471;DHT22;11402;51.374;6.594;2022-07-29T03:49:21;18.40;99.90
22471;DHT22;11402;51.374;6.594;2022-07-29T03:51:48;18.60;99.90
22471;DHT22;11402;51.374;6.594;2022-07-29T03:54:13;18.60;99.90
22471;DHT22;11402;51.374;6.594;2022-07-29T03:56:45;17.90;99.90
22471;DHT22;11402;51.374;6.594;2022-07-29T03:59:13;17.70;99.90
22471;DHT22;11402;51.374;6.594;2022-07-29T04:01:40;17.90;99.90
22471;DHT22;11402;51.374;6.594;2022-07-29T04:04:06;17.90;99.90
22471;DHT22;11402;51.374;6.594;2022-07-29T04:06:42;17.80;99.90
22471;DHT22;11402;51.374;6.594;2022-07-29T04:09:09;17.60;99.90
22471;DHT22;11402;51.374;6.594;2022-07-29T04:11:36;17.30;99.90
22471;DHT22;11402;51.374;6.594;2022-07-29T04:14:02;17.30;99.90
22471;DHT22;11402;51.374;6.594;2022-07-29T04:16:27;17.20;99.90
22471;DHT22;11402;51.374;6.594;2022-07-29T04:18:53;17.30;99.90
22471;DHT22;11402;51.374;6.594;2022-07-29T04:21:18;17.00;99.90
22471;DHT22;11402;51.374;6.594;2022-07-29T04:23:44;16.60;99.90
22471;DHT22;11402;51.374;6.594;2022-07-29T04:26:14;16.50;99.90
22471;DHT22;11402;51.374;6.594;2022-07-29T04:28:39;16.50;99.90
22471;DHT22;11402;51.374;6.594;2022-07-29T04:31:05;16.50;99.90
22471;DHT22;11402;51.374;6.594;2022-07-29T04:33:31;16.40;99.90
22471;DHT22;11402;51.374;6.594;2022-07-29T04:35:56;16.20;99.90
22471;DHT22;11402;51.374;6.594;2022-07-29T04:38:22;16.10;99.90
22471;DHT22;11402;51.374;6.594;2022-07-29T04:40:48;16.10;99.90
22471;DHT22;11402;51.374;6.594;2022-07-29T04:43:15;16.20;99.90
22471;DHT22;11402;51.374;6.594;2022-07-29T04:45:41;16.20;99.90
22471;DHT22;11402;51.374;6.594;2022-07-29T04:48:06;16.10;99.90
22471;DHT22;11402;51.374;6.594;2022-07-29T04:50:32;16.40;99.90
22471;DHT22;11402;51.374;6.594;2022-07-29T04:52:57;16.60;99.90
22471;DHT22;11402;51.374;6.594;2022-07-29T04:55:23;16.90;99.90
22471;DHT22;11402;51.374;6.594;2022-07-29T04:57:48;16.80;99.90
22471;DHT22;11402;51.374;6.594;2022-07-29T05:00:14;16.80;99.90
22471;DHT22;11402;51.374;6.594;2022-07-29T05:02:40;16.90;99.90
22471;DHT22;11402;51.374;6.594;2022-07-29T05:05:06;16.90;99.90
22471;DHT22;11402;51.374;6.594;2022-07-29T05:07:32;16.50;99.90
22471;DHT22;11402;51.374;6.594;2022-07-29T05:09:57;16.30;99.90
22471;DHT22;11402;51.374;6.594;2022-07-29T05:12:24;16.20;99.90
22471;DHT22;11402;51.374;6.594;2022-07-29T05:14:49;16.70;99.90
22471;DHT22;11402;51.374;6.594;2022-07-29T05:17:15;16.70;99.90
22471;DHT22;11402;51.374;6.594;2022-07-29T05:19:40;16.90;99.90
22471;DHT22;11402;51.374;6.594;2022-07-29T05:22:06;16.90;99.90
22471;DHT22;11402;51.374;6.594;2022-07-29T05:24:32;17.20;99.90
22471;DHT22;11402;51.374;6.594;2022-07-29T05:26:57;17.00;99.90
22471;DHT22;11402;51.374;6.594;2022-07-29T05:29:23;16.20;99.90
22471;DHT22;11402;51.374;6.594;2022-07-29T05:31:48;16.30;99.90
22471;DHT22;11402;51.374;6.594;2022-07-29T05:34:14;16.10;99.90
22471;DHT22;11402;51.374;6.594;2022-07-29T05:36:39;16.40;99.90
22471;DHT22;11402;51.374;6.594;2022-07-29T05:39:05;16.60;99.90
22471;DHT22;11402;51.374;6.594;2022-07-29T05:41:33;16.50;99.90
22471;DHT22;11402;51.374;6.594;2022-07-29T05:43:59;16.60;99.90
22471;DHT22;11402;51.374;6.594;2022-07-29T05:46:25;16.80;99.90
22471;DHT22;11402;51.374;6.594;2022-07-29T05:48:50;16.70;99.90
22471;DHT22;11402;51.374;6.594;2022-07-29T05:51:16;16.10;99.90
22471;DHT22;11402;51.374;6.594;2022-07-29T05:53:41;16.10;99.90
22471;DHT22;11402;51.374;6.594;2022-07-29T05:56:07;15.20;99.90
22471;DHT22;11402;51.374;6.594;2022-07-29T05:58:33;16.40;99.90
22471;DHT22;11402;51.374;6.594;2022-07-29T06:00:58;16.30;99.90
22471;DHT22;11402;51.374;6.594;2022-07-29T06:03:25;16.50;99.90
22471;DHT22;11402;51.374;6.594;2022-07-29T06:05:51;16.20;99.90
22471;DHT22;11402;51.374;6.594;2022-07-29T06:08:16;16.30;99.90
22471;DHT22;11402;51.374;6.594;2022-07-29T06:10:43;16.30;99.90
22471;DHT22;11402;51.374;6.594;2022-07-29T06:13:08;16.30;99.90
22471;DHT22;11402;51.374;6.594;2022-07-29T06:15:34;16.40;99.90
22471;DHT22;11402;51.374;6.594;2022-07-29T06:18:00;16.30;99.90
22471;DHT22;11402;51.374;6.594;2022-07-29T06:20:25;16.50;99.90
22471;DHT22;11402;51.374;6.594;2022-07-29T06:22:52;16.50;99.90
22471;DHT22;11402;51.374;6.594;2022-07-29T06:25:17;16.30;99.90
22471;DHT22;11402;51.374;6.594;2022-07-29T06:27:43;16.60;99.90
22471;DHT22;11402;51.374;6.594;2022-07-29T06:30:09;16.70;99.90
22471;DHT22;11402;51.374;6.594;2022-07-29T06:32:35;17.00;99.90
22471;DHT22;11402;51.374;6.594;2022-07-29T06:35:01;16.40;99.90
22471;DHT22;11402;51.374;6.594;2022-07-29T06:37:27;17.40;99.90
22471;DHT22;11402;51.374;6.594;2022-07-29T06:39:52;17.20;99.90
22471;DHT22;11402;51.374;6.594;2022-07-29T06:42:42;17.10;99.90
22471;DHT22;11402;51.374;6.594;2022-07-29T06:45:08;17.00;99.90
22471;DHT22;11402;51.374;6.594;2022-07-29T06:47:34;17.40;99.90
22471;DHT22;11402;51.374;6.594;2022-07-29T06:49:59;17.40;99.90
22471;DHT22;11402;51.374;6.594;2022-07-29T06:52:25;17.70;99.90
22471;DHT22;11402;51.374;6.594;2022-07-29T06:54:51;17.80;99.90
22471;DHT22;11402;51.374;6.594;2022-07-29T06:57:16;17.90;99.90
22471;DHT22;11402;51.374;6.594;2022-07-29T06:59:42;17.70;99.90
22471;DHT22;11402;51.374;6.594;2022-07-29T07:02:07;17.70;99.90
22471;DHT22;11402;51.374;6.594;2022-07-29T07:04:33;17.40;99.90
22471;DHT22;11402;51.374;6.594;2022-07-29T07:06:58;17.40;99.90
22471;DHT22;11402;51.374;6.594;2022-07-29T07:09:25;17.50;99.90
22471;DHT22;11402;51.374;6.594;2022-07-29T07:11:50;17.60;99.90
22471;DHT22;11402;51.374;6.594;2022-07-29T07:14:16;17.60;99.90
22471;DHT22;11402;51.374;6.594;2022-07-29T07:16:41;17.60;99.90
22471;DHT22;11402;51.374;6.594;2022-07-29T07:19:07;17.50;99.90
22471;DHT22;11402;51.374;6.594;2022-07-29T07:21:33;17.40;99.90
22471;DHT22;11402;51.374;6.594;2022-07-29T07:23:59;17.40;99.90
22471;DHT22;11402;51.374;6.594;2022-07-29T07:26:25;17.40;99.90
22471;DHT22;11402;51.374;6.594;2022-07-29T07:28:51;17.40;99.90
22471;DHT22;11402;51.374;6.594;2022-07-29T07:31:16;17.20;99.90
22471;DHT22;11402;51.374;6.594;2022-07-29T07:33:42;17.30;99.90
22471;DHT22;11402;51.374;6.594;2022-07-29T07:36:08;17.10;99.90
22471;DHT22;11402;51.374;6.594;2022-07-29T07:38:34;17.00;99.90
22471;DHT22;11402;51.374;6.594;2022-07-29T07:41:00;16.80;99.90
22471;DHT22;11402;51.374;6.594;2022-07-29T07:43:26;16.70;99.90
22471;DHT22;11402;51.374;6.594;2022-07-29T07:45:51;16.60;99.90
22471;DHT22;11402;51.374;6.594;2022-07-29T07:48:17;16.50;99.90
22471;DHT22;11402;51.374;6.594;2022-07-29T07:50:42;15.60;99.90
22471;DHT22;11402;51.374;6.594;2022-07-29T07:53:09;16.40;99.90
22471;DHT22;11402;51.374;6.594;2022-07-29T07:55:40;16.80;99.90
22471;DHT22;11402;51.374;6.594;2022-07-29T07:58:06;16.80;99.90
22471;DHT22;11402;51.374;6.594;2022-07-29T08:00:31;17.00;99.90
22471;DHT22;11402;51.374;6.594;2022-07-29T08:02:58;16.80;99.90
22471;DHT22;11402;51.374;6.594;2022-07-29T08:05:23;16.70;99.90
22471;DHT22;11402;51.374;6.594;2022-07-29T08:07:49;16.50;99.90
22471;DHT22;11402;51.374;6.594;2022-07-29T08:10:19;16.60;99.90
22471;DHT22;11402;51.374;6.594;2022-07-29T08:13:04;17.00;99.90
22471;DHT22;11402;51.374;6.594;2022-07-29T08:15:30;17.10;99.90
22471;DHT22;11402;51.374;6.594;2022-07-29T08:17:56;17.40;99.90
22471;DHT22;11402;51.374;6.594;2022-07-29T08:20:21;17.30;99.90
22471;DHT22;11402;51.374;6.594;2022-07-29T08:22:47;17.10;99.90
22471;DHT22;11402;51.374;6.594;2022-07-29T08:25:12;17.00;99.90
22471;DHT22;11402;51.374;6.594;2022-07-29T08:27:38;16.80;99.90
22471;DHT22;11402;51.374;6.594;2022-07-29T08:30:04;17.00;99.90
22471;DHT22;11402;51.374;6.594;2022-07-29T08:32:30;17.20;99.90
22471;DHT22;11402;51.374;6.594;2022-07-29T08:34:56;17.00;99.90
22471;DHT22;11402;51.374;6.594;2022-07-29T08:37:22;16.90;99.90
22471;DHT22;11402;51.374;6.594;2022-07-29T08:39:47;17.20;99.90
22471;DHT22;11402;51.374;6.594;2022-07-29T08:42:13;17.10;99.90
22471;DHT22;11402;51.374;6.594;2022-07-29T08:44:39;16.90;99.90
22471;DHT22;11402;51.374;6.594;2022-07-29T08:47:05;16.90;99.90
22471;DHT22;11402;51.374;6.594;2022-07-29T08:49:33;17.10;99.90
22471;DHT22;11402;51.374;6.594;2022-07-29T08:51:59;17.30;99.90
22471;DHT22;11402;51.374;6.594;2022-07-29T08:54:25;17.10;99.90
22471;DHT22;11402;51.374;6.594;2022-07-29T08:56:51;17.40;99.90
22471;DHT22;11402;51.374;6.594;2022-07-29T08:59:19;17.60;99.90
22471;DHT22;11402;51.374;6.594;2022-07-29T09:01:46;17.50;99.90
22471;DHT22;11402;51.374;6.594;2022-07-29T09:04:13;17.40;99.90
22471;DHT22;11402;51.374;6.594;2022-07-29T09:06:43;17.40;99.90
22471;DHT22;11402;51.374;6.594;2022-07-29T09:09:09;17.70;99.90
22471;DHT22;11402;51.374;6.594;2022-07-29T09:11:35;17.80;99.90
22471;DHT22;11402;51.374;6.594;2022-07-29T09:14:01;17.90;99.90
22471;DHT22;11402;51.374;6.594;2022-07-29T09:16:44;17.90;99.90
22471;DHT22;11402;51.374;6.594;2022-07-29T09:19:26;18.00;99.90
22471;DHT22;11402;51.374;6.594;2022-07-29T09:21:53;18.00;99.90
22471;DHT22;11402;51.374;6.594;2022-07-29T09:24:46;18.00;99.90
22471;DHT22;11402;51.374;6.594;2022-07-29T09:27:23;18.00;99.90
22471;DHT22;11402;51.374;6.594;2022-07-29T09:30:05;18.00;99.90
22471;DHT22;11402;51.374;6.594;2022-07-29T09:32:33;18.30;99.90
22471;DHT22;11402;51.374;6.594;2022-07-29T09:35:28;18.40;99.90
22471;DHT22;11402;51.374;6.594;2022-07-29T09:40:24;18.50;99.90
22471;DHT22;11402;51.374;6.594;2022-07-29T09:42:51;19.10;99.90
22471;DHT22;11402;51.374;6.594;2022-07-29T09:45:31;18.60;99.90
22471;DHT22;11402;51.374;6.594;2022-07-29T09:50:54;18.30;99.90
22471;DHT22;11402;51.374;6.594;2022-07-29T09:53:34;18.40;99.90
22471;DHT22;11402;51.374;6.594;2022-07-29T09:56:00;18.40;99.90
22471;DHT22;11402;51.374;6.594;2022-07-29T09:58:26;18.50;99.90
22471;DHT22;11402;51.374;6.594;2022-07-29T10:00:53;18.40;99.90
22471;DHT22;11402;51.374;6.594;2022-07-29T10:03:20;18.00;99.90
22471;DHT22;11402;51.374;6.594;2022-07-29T10:05:46;18.60;99.90
22471;DHT22;11402;51.374;6.594;2022-07-29T10:11:09;18.80;99.90
22471;DHT22;11402;51.374;6.594;2022-07-29T10:13:36;18.90;99.90
22471;DHT22;11402;51.374;6.594;2022-07-29T10:16:03;19.10;99.90
22471;DHT22;11402;51.374;6.594;2022-07-29T10:18:29;19.30;99.90
22471;DHT22;11402;51.374;6.594;2022-07-29T10:20:55;19.30;99.90
22471;DHT22;11402;51.374;6.594;2022-07-29T10:23:22;19.20;99.90
22471;DHT22;11402;51.374;6.594;2022-07-29T10:25:49;19.30;99.90
22471;DHT22;11402;51.374;6.594;2022-07-29T10:28:15;19.30;99.90
22471;DHT22;11402;51.374;6.594;2022-07-29T10:30:41;19.40;99.90
22471;DHT22;11402;51.374;6.594;2022-07-29T10:38:45;19.80;99.90
22471;DHT22;11402;51.374;6.594;2022-07-29T10:41:47;20.10;99.90
22471;DHT22;11402;51.374;6.594;2022-07-29T10:44:18;20.20;99.90
22471;DHT22;11402;51.374;6.594;2022-07-29T10:46:44;20.30;99.90
22471;DHT22;11402;51.374;6.594;2022-07-29T10:49:18;20.30;99.90
22471;DHT22;11402;51.374;6.594;2022-07-29T10:51:51;20.40;99.90
22471;DHT22;11402;51.374;6.594;2022-07-29T10:57:20;20.40;99.90
22471;DHT22;11402;51.374;6.594;2022-07-29T10:59:51;20.50;99.90
22471;DHT22;11402;51.374;6.594;2022-07-29T11:05:07;20.80;99.90
22471;DHT22;11402;51.374;6.594;2022-07-29T11:07:34;20.80;99.90
22471;DHT22;11402;51.374;6.594;2022-07-29T11:15:10;21.00;99.90
22471;DHT22;11402;51.374;6.594;2022-07-29T11:20:35;21.10;99.90
22471;DHT22;11402;51.374;6.594;2022-07-29T11:23:02;21.30;99.90
22471;DHT22;11402;51.374;6.594;2022-07-29T11:25:42;21.40;99.90
22471;DHT22;11402;51.374;6.594;2022-07-29T11:28:16;21.10;99.90
22471;DHT22;11402;51.374;6.594;2022-07-29T11:30:48;21.20;99.90
22471;DHT22;11402;51.374;6.594;2022-07-29T11:33:31;21.30;99.90
22471;DHT22;11402;51.374;6.594;2022-07-29T11:36:15;21.30;99.90
22471;DHT22;11402;51.374;6.594;2022-07-29T11:38:41;21.30;99.90
22471;DHT22;11402;51.374;6.594;2022-07-29T11:41:26;21.30;99.90
22471;DHT22;11402;51.374;6.594;2022-07-29T11:43:56;21.40;99.90
22471;DHT22;11402;51.374;6.594;2022-07-29T11:49:07;21.30;99.90
22471;DHT22;11402;51.374;6.594;2022-07-29T11:51:35;21.10;99.90
22471;DHT22;11402;51.374;6.594;2022-07-29T11:54:01;21.10;99.90
22471;DHT22;11402;51.374;6.594;2022-07-29T11:56:31;21.30;99.90
22471;DHT22;11402;51.374;6.594;2022-07-29T11:59:06;21.40;99.90
22471;DHT22;11402;51.374;6.594;2022-07-29T12:01:32;21.70;99.90
22471;DHT22;11402;51.374;6.594;2022-07-29T12:04:06;21.60;99.90
22471;DHT22;11402;51.374;6.594;2022-07-29T12:06:34;21.80;99.90
22471;DHT22;11402;51.374;6.594;2022-07-29T12:08:59;21.60;99.90
22471;DHT22;11402;51.374;6.594;2022-07-29T12:11:25;21.30;99.90
22471;DHT22;11402;51.374;6.594;2022-07-29T12:13:52;21.30;99.90
22471;DHT22;11402;51.374;6.594;2022-07-29T12:16:20;21.10;99.90
22471;DHT22;11402;51.374;6.594;2022-07-29T12:18:59;21.10;99.90
22471;DHT22;11402;51.374;6.594;2022-07-29T12:21:25;21.20;99.90
22471;DHT22;11402;51.374;6.594;2022-07-29T12:23:54;21.20;99.90
22471;DHT22;11402;51.374;6.594;2022-07-29T12:26:20;21.30;99.90
22471;DHT22;11402;51.374;6.594;2022-07-29T12:28:46;20.90;99.90
22471;DHT22;11402;51.374;6.594;2022-07-29T12:31:15;21.10;99.90
22471;DHT22;11402;51.374;6.594;2022-07-29T12:33:41;21.40;99.90
22471;DHT22;11402;51.374;6.594;2022-07-29T12:36:07;21.50;99.90
22471;DHT22;11402;51.374;6.594;2022-07-29T12:38:34;21.50;99.90
22471;DHT22;11402;51.374;6.594;2022-07-29T12:41:00;21.50;99.90
22471;DHT22;11402;51.374;6.594;2022-07-29T12:43:26;21.50;99.90
22471;DHT22;11402;51.374;6.594;2022-07-29T12:45:53;21.50;99.90
22471;DHT22;11402;51.374;6.594;2022-07-29T12:48:40;21.40;99.90
22471;DHT22;11402;51.374;6.594;2022-07-29T12:51:07;21.60;99.90
22471;DHT22;11402;51.374;6.594;2022-07-29T12:53:34;21.50;99.90
22471;DHT22;11402;51.374;6.594;2022-07-29T12:56:00;21.50;99.90
22471;DHT22;11402;51.374;6.594;2022-07-29T13:01:17;21.40;99.90
22471;DHT22;11402;51.374;6.594;2022-07-29T13:09:19;21.50;99.90
22471;DHT22;11402;51.374;6.594;2022-07-29T13:11:50;21.60;99.90
22471;DHT22;11402;51.374;6.594;2022-07-29T13:14:39;21.10;99.90
22471;DHT22;11402;51.374;6.594;2022-07-29T13:17:11;21.80;99.90
22471;DHT22;11402;51.374;6.594;2022-07-29T13:19:39;21.90;99.90
22471;DHT22;11402;51.374;6.594;2022-07-29T13:24:48;22.10;99.90
22471;DHT22;11402;51.374;6.594;2022-07-29T13:27:19;22.20;99.90
22471;DHT22;11402;51.374;6.594;2022-07-29T13:29:45;22.40;99.90
22471;DHT22;11402;51.374;6.594;2022-07-29T13:32:11;22.40;99.90
22471;DHT22;11402;51.374;6.594;2022-07-29T13:34:37;22.40;99.90
22471;DHT22;11402;51.374;6.594;2022-07-29T13:37:03;22.50;99.90
22471;DHT22;11402;51.374;6.594;2022-07-29T13:39:28;22.50;99.90
22471;DHT22;11402;51.374;6.594;2022-07-29T13:41:54;22.40;99.90
22471;DHT22;11402;51.374;6.594;2022-07-29T13:44:19;22.60;99.90
22471;DHT22;11402;51.374;6.594;2022-07-29T13:46:45;22.70;99.90
22471;DHT22;11402;51.374;6.594;2022-07-29T13:49:10;22.60;99.90
22471;DHT22;11402;51.374;6.594;2022-07-29T13:51:37;22.60;99.90
22471;DHT22;11402;51.374;6.594;2022-07-29T13:54:03;22.50;99.90
22471;DHT22;11402;51.374;6.594;2022-07-29T13:56:28;22.60;99.90
22471;DHT22;11402;51.374;6.594;2022-07-29T13:58:54;22.60;99.90
22471;DHT22;11402;51.374;6.594;2022-07-29T14:01:19;22.50;99.90
22471;DHT22;11402;51.374;6.594;2022-07-29T14:03:45;22.30;99.90
22471;DHT22;11402;51.374;6.594;2022-07-29T14:06:10;22.30;99.90
22471;DHT22;11402;51.374;6.594;2022-07-29T14:08:36;22.30;99.90
22471;DHT22;11402;51.374;6.594;2022-07-29T14:11:02;22.40;99.90
22471;DHT22;11402;51.374;6.594;2022-07-29T14:13:28;22.60;99.90
22471;DHT22;11402;51.374;6.594;2022-07-29T14:15:53;22.70;99.90
22471;DHT22;11402;51.374;6.594;2022-07-29T14:18:19;22.70;99.90
22471;DHT22;11402;51.374;6.594;2022-07-29T14:20:44;22.80;99.90
22471;DHT22;11402;51.374;6.594;2022-07-29T14:23:10;22.60;99.90
22471;DHT22;11402;51.374;6.594;2022-07-29T14:25:35;22.60;99.90
22471;DHT22;11402;51.374;6.594;2022-07-29T14:28:01;22.60;99.90
22471;DHT22;11402;51.374;6.594;2022-07-29T14:30:26;22.70;99.90
22471;DHT22;11402;51.374;6.594;2022-07-29T14:32:52;22.60;99.90
22471;DHT22;11402;51.374;6.594;2022-07-29T14:35:18;22.80;99.90
22471;DHT22;11402;51.374;6.594;2022-07-29T14:37:43;23.00;99.90
22471;DHT22;11402;51.374;6.594;2022-07-29T14:40:10;23.00;99.90
22471;DHT22;11402;51.374;6.594;2022-07-29T14:42:35;23.00;99.90
22471;DHT22;11402;51.374;6.594;2022-07-29T14:45:02;23.00;99.90
22471;DHT22;11402;51.374;6.594;2022-07-29T14:47:28;23.10;99.90
22471;DHT22;11402;51.374;6.594;2022-07-29T14:49:54;23.10;99.90
22471;DHT22;11402;51.374;6.594;2022-07-29T14:52:19;23.10;99.90
22471;DHT22;11402;51.374;6.594;2022-07-29T14:54:48;23.20;99.90
22471;DHT22;11402;51.374;6.594;2022-07-29T14:57:14;23.10;99.90
22471;DHT22;11402;51.374;6.594;2022-07-29T14:59:39;23.20;99.90
22471;DHT22;11402;51.374;6.594;2022-07-29T15:02:05;23.30;99.90
22471;DHT22;11402;51.374;6.594;2022-07-29T15:04:30;23.60;99.90
22471;DHT22;11402;51.374;6.594;2022-07-29T15:06:56;23.40;99.90
22471;DHT22;11402;51.374;6.594;2022-07-29T15:09:22;23.40;99.90
22471;DHT22;11402;51.374;6.594;2022-07-29T15:11:47;23.50;99.90
22471;DHT22;11402;51.374;6.594;2022-07-29T15:14:13;23.50;99.90
22471;DHT22;11402;51.374;6.594;2022-07-29T15:16:39;23.40;99.90
22471;DHT22;11402;51.374;6.594;2022-07-29T15:19:05;23.70;99.90
22471;DHT22;11402;51.374;6.594;2022-07-29T15:21:31;23.80;99.90
22471;DHT22;11402;51.374;6.594;2022-07-29T15:23:57;23.60;99.90
22471;DHT22;11402;51.374;6.594;2022-07-29T15:26:22;23.70;99.90
22471;DHT22;11402;51.374;6.594;2022-07-29T15:28:48;23.60;99.90
22471;DHT22;11402;51.374;6.594;2022-07-29T15:31:14;23.70;99.90
22471;DHT22;11402;51.374;6.594;2022-07-29T15:33:39;23.70;99.90
22471;DHT22;11402;51.374;6.594;2022-07-29T15:36:05;23.80;99.90
22471;DHT22;11402;51.374;6.594;2022-07-29T15:38:31;23.90;99.90
22471;DHT22;11402;51.374;6.594;2022-07-29T15:40:56;23.80;99.90
22471;DHT22;11402;51.374;6.594;2022-07-29T15:43:22;23.90;99.90
22471;DHT22;11402;51.374;6.594;2022-07-29T15:45:48;24.00;99.90
22471;DHT22;11402;51.374;6.594;2022-07-29T15:48:33;24.00;99.90
22471;DHT22;11402;51.374;6.594;2022-07-29T15:51:02;24.20;99.90
22471;DHT22;11402;51.374;6.594;2022-07-29T15:53:28;24.10;99.90
22471;DHT22;11402;51.374;6.594;2022-07-29T15:55:53;24.20;99.90
22471;DHT22;11402;51.374;6.594;2022-07-29T15:58:19;24.20;99.90
22471;DHT22;11402;51.374;6.594;2022-07-29T16:00:45;24.10;99.90
22471;DHT22;11402;51.374;6.594;2022-07-29T16:03:10;24.00;99.90
22471;DHT22;11402;51.374;6.594;2022-07-29T16:05:36;24.00;99.90
22471;DHT22;11402;51.374;6.594;2022-07-29T16:08:02;24.10;99.90
22471;DHT22;11402;51.374;6.594;2022-07-29T16:10:27;24.20;99.90
22471;DHT22;11402;51.374;6.594;2022-07-29T16:12:53;24.00;99.90
22471;DHT22;11402;51.374;6.594;2022-07-29T16:15:18;23.90;99.90
22471;DHT22;11402;51.374;6.594;2022-07-29T16:17:44;23.90;99.90
22471;DHT22;11402;51.374;6.594;2022-07-29T16:20:10;24.00;99.90